sensor_id;sensor_type;location;lat;lon;timestamp;P1;durP1;ratioP1;P2;durP2;ratioP2
21601;SDS011;10963;50.934;4.668;2023-04-24T00:01:24;20.57;;;13.10;;
21601;SDS011;10963;50.934;4.668;2023-04-24T00:03:49;23.53;;;14.10;;
21601;SDS011;10963;50.934;4.668;2023-04-24T00:06:18;23.70;;;14.27;;
21601;SDS011;10963;50.934;4.668;2023-04-24T00:08:43;26.70;;;13.87;;
21601;SDS011;10963;50.934;4.668;2023-04-24T00:11:12;28.07;;;14.50;;
21601;SDS011;10963;50.934;4.668;2023-04-24T00:13:39;32.33;;;15.00;;
21601;SDS011;10963;50.934;4.668;2023-04-24T00:16:05;26.97;;;14.83;;
21601;SDS011;10963;50.934;4.668;2023-04-24T00:18:31;26.80;;;14.67;;
21601;SDS011;10963;50.934;4.668;2023-04-24T00:20:57;27.40;;;14.37;;
21601;SDS011;10963;50.934;4.668;2023-04-24T00:23:23;28.50;;;14.33;;
21601;SDS011;10963;50.934;4.668;2023-04-24T00:25:51;27.37;;;13.70;;
21601;SDS011;10963;50.934;4.668;2023-04-24T00:28:17;25.60;;;14.43;;
21601;SDS011;10963;50.934;4.668;2023-04-24T00:30:42;22.23;;;13.67;;
21601;SDS011;10963;50.934;4.668;2023-04-24T00:33:08;24.23;;;14.63;;
21601;SDS011;10963;50.934;4.668;2023-04-24T00:35:39;27.43;;;14.43;;
21601;SDS011;10963;50.934;4.668;2023-04-24T00:38:07;25.53;;;13.83;;
21601;SDS011;10963;50.934;4.668;2023-04-24T00:40:33;21.43;;;13.93;;
21601;SDS011;10963;50.934;4.668;2023-04-24T00:42:58;29.17;;;14.87;;
21601;SDS011;10963;50.934;4.668;2023-04-24T00:45:24;20.90;;;13.40;;
21601;SDS011;10963;50.934;4.668;2023-04-24T00:47:50;27.07;;;14.27;;
21601;SDS011;10963;50.934;4.668;2023-04-24T00:50:17;24.97;;;14.30;;
21601;SDS011;10963;50.934;4.668;2023-04-24T00:52:46;23.60;;;13.77;;
21601;SDS011;10963;50.934;4.668;2023-04-24T00:55:12;25.73;;;13.43;;
21601;SDS011;10963;50.934;4.668;2023-04-24T00:57:38;25.90;;;13.83;;
21601;SDS011;10963;50.934;4.668;2023-04-24T01:00:05;24.67;;;14.53;;
21601;SDS011;10963;50.934;4.668;2023-04-24T01:02:35;26.23;;;13.87;;
21601;SDS011;10963;50.934;4.668;2023-04-24T01:05:07;27.70;;;14.00;;
21601;SDS011;10963;50.934;4.668;2023-04-24T01:07:33;27.87;;;14.57;;
21601;SDS011;10963;50.934;4.668;2023-04-24T01:09:59;25.40;;;14.10;;
21601;SDS011;10963;50.934;4.668;2023-04-24T01:12:28;21.90;;;14.10;;
21601;SDS011;10963;50.934;4.668;2023-04-24T01:14:54;29.27;;;14.83;;
21601;SDS011;10963;50.934;4.668;2023-04-24T01:17:21;24.27;;;14.27;;
21601;SDS011;10963;50.934;4.668;2023-04-24T01:19:50;27.80;;;14.27;;
21601;SDS011;10963;50.934;4.668;2023-04-24T01:22:18;27.07;;;14.87;;
21601;SDS011;10963;50.934;4.668;2023-04-24T01:24:45;22.37;;;13.43;;
21601;SDS011;10963;50.934;4.668;2023-04-24T01:27:11;21.87;;;13.47;;
21601;SDS011;10963;50.934;4.668;2023-04-24T01:29:37;31.30;;;14.27;;
21601;SDS011;10963;50.934;4.668;2023-04-24T01:32:05;23.97;;;13.40;;
21601;SDS011;10963;50.934;4.668;2023-04-24T01:34:31;23.20;;;14.17;;
21601;SDS011;10963;50.934;4.668;2023-04-24T01:37:02;26.00;;;14.67;;
21601;SDS011;10963;50.934;4.668;2023-04-24T01:39:30;25.10;;;14.27;;
21601;SDS011;10963;50.934;4.668;2023-04-24T01:41:56;21.43;;;13.17;;
21601;SDS011;10963;50.934;4.668;2023-04-24T01:44:24;24.17;;;13.50;;
21601;SDS011;10963;50.934;4.668;2023-04-24T01:46:53;25.97;;;12.53;;
21601;SDS011;10963;50.934;4.668;2023-04-24T01:49:23;24.17;;;13.93;;
21601;SDS011;10963;50.934;4.668;2023-04-24T01:51:51;24.50;;;12.97;;
21601;SDS011;10963;50.934;4.668;2023-04-24T01:54:16;21.87;;;12.80;;
21601;SDS011;10963;50.934;4.668;2023-04-24T01:56:42;17.37;;;11.13;;
21601;SDS011;10963;50.934;4.668;2023-04-24T01:59:09;22.00;;;11.90;;
21601;SDS011;10963;50.934;4.668;2023-04-24T02:01:36;19.00;;;11.43;;
21601;SDS011;10963;50.934;4.668;2023-04-24T02:04:05;19.80;;;11.37;;
21601;SDS011;10963;50.934;4.668;2023-04-24T02:06:31;19.70;;;10.63;;
21601;SDS011;10963;50.934;4.668;2023-04-24T02:08:59;16.47;;;10.27;;
21601;SDS011;10963;50.934;4.668;2023-04-24T02:11:25;16.70;;;9.43;;
21601;SDS011;10963;50.934;4.668;2023-04-24T02:13:51;17.50;;;10.30;;
21601;SDS011;10963;50.934;4.668;2023-04-24T02:16:18;16.53;;;10.57;;
21601;SDS011;10963;50.934;4.668;2023-04-24T02:18:44;16.33;;;9.80;;
21601;SDS011;10963;50.934;4.668;2023-04-24T02:21:12;17.10;;;9.93;;
21601;SDS011;10963;50.934;4.668;2023-04-24T02:23:37;22.83;;;9.80;;
21601;SDS011;10963;50.934;4.668;2023-04-24T02:26:03;15.07;;;10.00;;
21601;SDS011;10963;50.934;4.668;2023-04-24T02:28:32;16.90;;;10.37;;
21601;SDS011;10963;50.934;4.668;2023-04-24T02:31:02;20.30;;;10.73;;
21601;SDS011;10963;50.934;4.668;2023-04-24T02:33:33;18.43;;;10.80;;
21601;SDS011;10963;50.934;4.668;2023-04-24T02:36:03;15.70;;;10.80;;
21601;SDS011;10963;50.934;4.668;2023-04-24T02:38:29;22.30;;;11.43;;
21601;SDS011;10963;50.934;4.668;2023-04-24T02:41:00;20.77;;;12.03;;
21601;SDS011;10963;50.934;4.668;2023-04-24T02:43:31;16.80;;;10.87;;
21601;SDS011;10963;50.934;4.668;2023-04-24T02:45:57;16.83;;;10.93;;
21601;SDS011;10963;50.934;4.668;2023-04-24T02:48:25;26.53;;;11.43;;
21601;SDS011;10963;50.934;4.668;2023-04-24T02:50:51;18.90;;;12.30;;
21601;SDS011;10963;50.934;4.668;2023-04-24T02:53:19;18.40;;;12.57;;
21601;SDS011;10963;50.934;4.668;2023-04-24T02:55:50;18.03;;;11.17;;
21601;SDS011;10963;50.934;4.668;2023-04-24T02:58:19;20.90;;;12.30;;
21601;SDS011;10963;50.934;4.668;2023-04-24T03:00:45;19.80;;;11.80;;
21601;SDS011;10963;50.934;4.668;2023-04-24T03:03:12;18.90;;;11.57;;
21601;SDS011;10963;50.934;4.668;2023-04-24T03:05:38;17.90;;;11.23;;
21601;SDS011;10963;50.934;4.668;2023-04-24T03:08:03;22.33;;;11.90;;
21601;SDS011;10963;50.934;4.668;2023-04-24T03:10:29;18.33;;;12.17;;
21601;SDS011;10963;50.934;4.668;2023-04-24T03:12:55;22.33;;;12.60;;
21601;SDS011;10963;50.934;4.668;2023-04-24T03:15:21;24.97;;;12.53;;
21601;SDS011;10963;50.934;4.668;2023-04-24T03:17:49;20.87;;;11.73;;
21601;SDS011;10963;50.934;4.668;2023-04-24T03:20:17;22.20;;;12.13;;
21601;SDS011;10963;50.934;4.668;2023-04-24T03:22:45;23.07;;;11.93;;
21601;SDS011;10963;50.934;4.668;2023-04-24T03:25:13;21.27;;;11.63;;
21601;SDS011;10963;50.934;4.668;2023-04-24T03:27:39;18.40;;;11.90;;
21601;SDS011;10963;50.934;4.668;2023-04-24T03:30:07;19.67;;;10.93;;
21601;SDS011;10963;50.934;4.668;2023-04-24T03:32:34;19.70;;;11.63;;
21601;SDS011;10963;50.934;4.668;2023-04-24T03:34:59;18.03;;;10.27;;
21601;SDS011;10963;50.934;4.668;2023-04-24T03:37:25;22.33;;;11.50;;
21601;SDS011;10963;50.934;4.668;2023-04-24T03:39:51;15.93;;;9.77;;
21601;SDS011;10963;50.934;4.668;2023-04-24T03:42:17;16.80;;;9.50;;
21601;SDS011;10963;50.934;4.668;2023-04-24T03:44:45;12.57;;;9.03;;
21601;SDS011;10963;50.934;4.668;2023-04-24T03:47:15;15.03;;;9.57;;
21601;SDS011;10963;50.934;4.668;2023-04-24T03:49:43;14.40;;;9.70;;
21601;SDS011;10963;50.934;4.668;2023-04-24T03:52:09;12.73;;;8.37;;
21601;SDS011;10963;50.934;4.668;2023-04-24T03:54:35;13.27;;;8.57;;
21601;SDS011;10963;50.934;4.668;2023-04-24T03:57:00;13.07;;;8.70;;
21601;SDS011;10963;50.934;4.668;2023-04-24T03:59:29;15.40;;;9.10;;
21601;SDS011;10963;50.934;4.668;2023-04-24T04:01:55;13.87;;;8.47;;
21601;SDS011;10963;50.934;4.668;2023-04-24T04:04:23;13.00;;;8.37;;
21601;SDS011;10963;50.934;4.668;2023-04-24T04:06:51;12.70;;;7.80;;
21601;SDS011;10963;50.934;4.668;2023-04-24T04:09:20;16.80;;;8.87;;
21601;SDS011;10963;50.934;4.668;2023-04-24T04:11:46;13.17;;;8.07;;
21601;SDS011;10963;50.934;4.668;2023-04-24T04:14:12;9.40;;;6.63;;
21601;SDS011;10963;50.934;4.668;2023-04-24T04:16:37;10.93;;;7.00;;
21601;SDS011;10963;50.934;4.668;2023-04-24T04:19:03;11.07;;;7.63;;
21601;SDS011;10963;50.934;4.668;2023-04-24T04:21:30;11.00;;;7.30;;
21601;SDS011;10963;50.934;4.668;2023-04-24T04:23:57;14.80;;;8.57;;
21601;SDS011;10963;50.934;4.668;2023-04-24T04:26:22;13.27;;;7.50;;
21601;SDS011;10963;50.934;4.668;2023-04-24T04:28:50;11.93;;;7.43;;
21601;SDS011;10963;50.934;4.668;2023-04-24T04:31:16;11.70;;;7.90;;
21601;SDS011;10963;50.934;4.668;2023-04-24T04:33:44;15.73;;;8.33;;
21601;SDS011;10963;50.934;4.668;2023-04-24T04:36:10;11.17;;;7.23;;
21601;SDS011;10963;50.934;4.668;2023-04-24T04:38:44;13.27;;;7.67;;
21601;SDS011;10963;50.934;4.668;2023-04-24T04:41:13;10.73;;;6.73;;
21601;SDS011;10963;50.934;4.668;2023-04-24T04:43:39;12.73;;;7.37;;
21601;SDS011;10963;50.934;4.668;2023-04-24T04:46:07;11.40;;;7.23;;
21601;SDS011;10963;50.934;4.668;2023-04-24T04:48:35;12.03;;;7.47;;
21601;SDS011;10963;50.934;4.668;2023-04-24T04:51:01;11.53;;;7.53;;
21601;SDS011;10963;50.934;4.668;2023-04-24T04:53:27;12.90;;;7.50;;
21601;SDS011;10963;50.934;4.668;2023-04-24T04:55:53;16.57;;;8.63;;
21601;SDS011;10963;50.934;4.668;2023-04-24T04:58:18;12.87;;;7.83;;
21601;SDS011;10963;50.934;4.668;2023-04-24T05:00:44;13.97;;;8.50;;
21601;SDS011;10963;50.934;4.668;2023-04-24T05:03:17;17.40;;;8.43;;
21601;SDS011;10963;50.934;4.668;2023-04-24T05:05:43;12.10;;;8.30;;
21601;SDS011;10963;50.934;4.668;2023-04-24T05:08:08;17.00;;;9.13;;
21601;SDS011;10963;50.934;4.668;2023-04-24T05:10:34;16.03;;;10.03;;
21601;SDS011;10963;50.934;4.668;2023-04-24T05:13:02;18.40;;;10.53;;
21601;SDS011;10963;50.934;4.668;2023-04-24T05:15:33;19.77;;;11.40;;
21601;SDS011;10963;50.934;4.668;2023-04-24T05:17:59;22.80;;;12.40;;
21601;SDS011;10963;50.934;4.668;2023-04-24T05:20:27;23.13;;;13.37;;
21601;SDS011;10963;50.934;4.668;2023-04-24T05:22:55;26.67;;;13.83;;
21601;SDS011;10963;50.934;4.668;2023-04-24T05:25:21;25.27;;;13.10;;
21601;SDS011;10963;50.934;4.668;2023-04-24T05:27:47;27.40;;;13.80;;
21601;SDS011;10963;50.934;4.668;2023-04-24T05:30:13;27.43;;;12.80;;
21601;SDS011;10963;50.934;4.668;2023-04-24T05:32:41;26.50;;;13.33;;
21601;SDS011;10963;50.934;4.668;2023-04-24T05:35:06;25.60;;;12.80;;
21601;SDS011;10963;50.934;4.668;2023-04-24T05:37:32;22.00;;;11.73;;
21601;SDS011;10963;50.934;4.668;2023-04-24T05:40:00;22.80;;;12.67;;
21601;SDS011;10963;50.934;4.668;2023-04-24T05:42:26;24.17;;;12.97;;
21601;SDS011;10963;50.934;4.668;2023-04-24T05:44:52;25.67;;;13.53;;
21601;SDS011;10963;50.934;4.668;2023-04-24T05:47:19;23.77;;;13.10;;
21601;SDS011;10963;50.934;4.668;2023-04-24T05:49:47;19.57;;;11.47;;
21601;SDS011;10963;50.934;4.668;2023-04-24T05:52:15;23.40;;;12.40;;
21601;SDS011;10963;50.934;4.668;2023-04-24T05:54:41;23.47;;;11.77;;
21601;SDS011;10963;50.934;4.668;2023-04-24T05:57:09;28.10;;;13.07;;
21601;SDS011;10963;50.934;4.668;2023-04-24T05:59:37;28.53;;;13.70;;
21601;SDS011;10963;50.934;4.668;2023-04-24T06:02:05;30.00;;;13.67;;
21601;SDS011;10963;50.934;4.668;2023-04-24T06:04:32;22.17;;;12.70;;
21601;SDS011;10963;50.934;4.668;2023-04-24T06:06:58;28.33;;;13.87;;
21601;SDS011;10963;50.934;4.668;2023-04-24T06:09:24;27.37;;;14.30;;
21601;SDS011;10963;50.934;4.668;2023-04-24T06:11:50;22.50;;;12.77;;
21601;SDS011;10963;50.934;4.668;2023-04-24T06:14:20;26.83;;;13.27;;
21601;SDS011;10963;50.934;4.668;2023-04-24T06:16:48;26.83;;;13.83;;
21601;SDS011;10963;50.934;4.668;2023-04-24T06:19:16;27.63;;;12.93;;
21601;SDS011;10963;50.934;4.668;2023-04-24T06:21:42;29.80;;;13.93;;
21601;SDS011;10963;50.934;4.668;2023-04-24T06:24:08;23.27;;;13.37;;
21601;SDS011;10963;50.934;4.668;2023-04-24T06:26:38;25.93;;;12.43;;
21601;SDS011;10963;50.934;4.668;2023-04-24T06:29:04;28.13;;;14.07;;
21601;SDS011;10963;50.934;4.668;2023-04-24T06:31:30;24.53;;;13.87;;
21601;SDS011;10963;50.934;4.668;2023-04-24T06:33:58;28.40;;;13.77;;
21601;SDS011;10963;50.934;4.668;2023-04-24T06:36:23;31.07;;;15.37;;
21601;SDS011;10963;50.934;4.668;2023-04-24T06:38:49;29.03;;;14.93;;
21601;SDS011;10963;50.934;4.668;2023-04-24T06:41:17;36.43;;;15.67;;
21601;SDS011;10963;50.934;4.668;2023-04-24T06:43:43;33.30;;;15.67;;
21601;SDS011;10963;50.934;4.668;2023-04-24T06:46:09;33.73;;;16.70;;
21601;SDS011;10963;50.934;4.668;2023-04-24T06:48:37;34.53;;;16.63;;
21601;SDS011;10963;50.934;4.668;2023-04-24T06:51:03;31.80;;;16.03;;
21601;SDS011;10963;50.934;4.668;2023-04-24T06:53:29;35.47;;;17.17;;
21601;SDS011;10963;50.934;4.668;2023-04-24T06:55:55;36.30;;;15.03;;
21601;SDS011;10963;50.934;4.668;2023-04-24T06:58:21;29.17;;;15.57;;
21601;SDS011;10963;50.934;4.668;2023-04-24T07:00:46;28.73;;;14.97;;
21601;SDS011;10963;50.934;4.668;2023-04-24T07:03:15;31.53;;;16.87;;
21601;SDS011;10963;50.934;4.668;2023-04-24T07:05:40;34.10;;;16.10;;
21601;SDS011;10963;50.934;4.668;2023-04-24T07:08:06;37.13;;;17.83;;
21601;SDS011;10963;50.934;4.668;2023-04-24T07:10:36;37.83;;;16.77;;
21601;SDS011;10963;50.934;4.668;2023-04-24T07:13:04;32.80;;;17.23;;
21601;SDS011;10963;50.934;4.668;2023-04-24T07:15:34;34.83;;;17.23;;
21601;SDS011;10963;50.934;4.668;2023-04-24T07:18:02;34.97;;;17.83;;
21601;SDS011;10963;50.934;4.668;2023-04-24T07:20:32;37.73;;;17.87;;
21601;SDS011;10963;50.934;4.668;2023-04-24T07:22:59;30.90;;;16.40;;
21601;SDS011;10963;50.934;4.668;2023-04-24T07:25:24;35.20;;;16.60;;
21601;SDS011;10963;50.934;4.668;2023-04-24T07:27:50;32.80;;;17.07;;
21601;SDS011;10963;50.934;4.668;2023-04-24T07:30:16;28.97;;;15.57;;
21601;SDS011;10963;50.934;4.668;2023-04-24T07:32:41;31.67;;;16.17;;
21601;SDS011;10963;50.934;4.668;2023-04-24T07:35:09;27.67;;;14.90;;
21601;SDS011;10963;50.934;4.668;2023-04-24T07:37:38;25.87;;;13.50;;
21601;SDS011;10963;50.934;4.668;2023-04-24T07:40:03;30.07;;;14.90;;
21601;SDS011;10963;50.934;4.668;2023-04-24T07:42:32;31.67;;;15.17;;
21601;SDS011;10963;50.934;4.668;2023-04-24T07:45:00;30.53;;;15.40;;
21601;SDS011;10963;50.934;4.668;2023-04-24T07:47:26;25.13;;;13.83;;
21601;SDS011;10963;50.934;4.668;2023-04-24T07:49:52;31.13;;;13.73;;
21601;SDS011;10963;50.934;4.668;2023-04-24T07:52:22;24.27;;;11.17;;
21601;SDS011;10963;50.934;4.668;2023-04-24T07:54:48;25.43;;;10.77;;
21601;SDS011;10963;50.934;4.668;2023-04-24T07:57:15;21.27;;;9.80;;
21601;SDS011;10963;50.934;4.668;2023-04-24T07:59:41;20.17;;;8.43;;
21601;SDS011;10963;50.934;4.668;2023-04-24T08:02:07;19.83;;;8.47;;
21601;SDS011;10963;50.934;4.668;2023-04-24T08:04:33;21.93;;;9.77;;
21601;SDS011;10963;50.934;4.668;2023-04-24T08:06:58;22.97;;;10.20;;
21601;SDS011;10963;50.934;4.668;2023-04-24T08:09:24;22.27;;;11.20;;
21601;SDS011;10963;50.934;4.668;2023-04-24T08:11:50;28.37;;;13.17;;
21601;SDS011;10963;50.934;4.668;2023-04-24T08:14:16;27.43;;;12.50;;
21601;SDS011;10963;50.934;4.668;2023-04-24T08:16:43;34.00;;;15.13;;
21601;SDS011;10963;50.934;4.668;2023-04-24T08:19:12;26.70;;;13.67;;
21601;SDS011;10963;50.934;4.668;2023-04-24T08:21:37;30.30;;;13.90;;
21601;SDS011;10963;50.934;4.668;2023-04-24T08:24:05;28.67;;;13.67;;
21601;SDS011;10963;50.934;4.668;2023-04-24T08:26:35;30.43;;;12.27;;
21601;SDS011;10963;50.934;4.668;2023-04-24T08:29:03;25.70;;;12.10;;
21601;SDS011;10963;50.934;4.668;2023-04-24T08:31:31;22.53;;;9.87;;
21601;SDS011;10963;50.934;4.668;2023-04-24T08:33:57;19.00;;;7.77;;
21601;SDS011;10963;50.934;4.668;2023-04-24T08:36:23;16.43;;;7.83;;
21601;SDS011;10963;50.934;4.668;2023-04-24T08:38:49;23.83;;;9.10;;
21601;SDS011;10963;50.934;4.668;2023-04-24T08:41:15;14.23;;;6.47;;
21601;SDS011;10963;50.934;4.668;2023-04-24T08:43:42;18.67;;;8.00;;
21601;SDS011;10963;50.934;4.668;2023-04-24T08:46:11;15.93;;;7.57;;
21601;SDS011;10963;50.934;4.668;2023-04-24T08:48:38;16.77;;;7.83;;
21601;SDS011;10963;50.934;4.668;2023-04-24T08:51:08;16.07;;;8.43;;
21601;SDS011;10963;50.934;4.668;2023-04-24T08:53:41;19.23;;;8.43;;
21601;SDS011;10963;50.934;4.668;2023-04-24T08:56:11;18.20;;;8.60;;
21601;SDS011;10963;50.934;4.668;2023-04-24T08:58:37;21.40;;;8.97;;
21601;SDS011;10963;50.934;4.668;2023-04-24T09:01:04;16.80;;;8.30;;
21601;SDS011;10963;50.934;4.668;2023-04-24T09:03:30;31.10;;;9.10;;
21601;SDS011;10963;50.934;4.668;2023-04-24T09:05:57;16.50;;;7.60;;
21601;SDS011;10963;50.934;4.668;2023-04-24T09:08:25;15.70;;;6.50;;
21601;SDS011;10963;50.934;4.668;2023-04-24T09:10:53;16.70;;;7.33;;
21601;SDS011;10963;50.934;4.668;2023-04-24T09:13:19;11.00;;;6.80;;
21601;SDS011;10963;50.934;4.668;2023-04-24T09:15:45;18.03;;;7.30;;
21601;SDS011;10963;50.934;4.668;2023-04-24T09:18:16;15.00;;;7.27;;
21601;SDS011;10963;50.934;4.668;2023-04-24T09:20:56;18.30;;;9.00;;
21601;SDS011;10963;50.934;4.668;2023-04-24T09:23:31;19.23;;;8.73;;
21601;SDS011;10963;50.934;4.668;2023-04-24T09:25:58;22.13;;;8.80;;
21601;SDS011;10963;50.934;4.668;2023-04-24T09:28:35;19.27;;;8.20;;
21601;SDS011;10963;50.934;4.668;2023-04-24T09:31:15;18.47;;;8.47;;
21601;SDS011;10963;50.934;4.668;2023-04-24T09:34:02;19.43;;;8.43;;
21601;SDS011;10963;50.934;4.668;2023-04-24T09:36:35;17.53;;;7.77;;
21601;SDS011;10963;50.934;4.668;2023-04-24T09:39:06;16.73;;;7.03;;
21601;SDS011;10963;50.934;4.668;2023-04-24T09:41:35;14.63;;;6.83;;
21601;SDS011;10963;50.934;4.668;2023-04-24T09:44:14;17.70;;;6.80;;
21601;SDS011;10963;50.934;4.668;2023-04-24T09:46:45;16.87;;;6.80;;
21601;SDS011;10963;50.934;4.668;2023-04-24T09:49:22;15.43;;;6.67;;
21601;SDS011;10963;50.934;4.668;2023-04-24T09:51:50;14.30;;;6.33;;
21601;SDS011;10963;50.934;4.668;2023-04-24T09:54:18;15.33;;;6.47;;
21601;SDS011;10963;50.934;4.668;2023-04-24T09:56:49;11.47;;;7.13;;
21601;SDS011;10963;50.934;4.668;2023-04-24T09:59:19;11.10;;;6.17;;
21601;SDS011;10963;50.934;4.668;2023-04-24T10:01:47;8.23;;;5.70;;
21601;SDS011;10963;50.934;4.668;2023-04-24T10:04:24;10.23;;;5.47;;
21601;SDS011;10963;50.934;4.668;2023-04-24T10:06:56;7.97;;;4.87;;
21601;SDS011;10963;50.934;4.668;2023-04-24T10:09:23;8.13;;;4.90;;
21601;SDS011;10963;50.934;4.668;2023-04-24T10:11:52;10.77;;;4.23;;
21601;SDS011;10963;50.934;4.668;2023-04-24T10:14:21;8.50;;;4.43;;
21601;SDS011;10963;50.934;4.668;2023-04-24T10:16:54;7.57;;;4.13;;
21601;SDS011;10963;50.934;4.668;2023-04-24T10:19:24;8.37;;;4.63;;
21601;SDS011;10963;50.934;4.668;2023-04-24T10:21:53;11.37;;;5.27;;
21601;SDS011;10963;50.934;4.668;2023-04-24T10:24:24;12.90;;;5.10;;
21601;SDS011;10963;50.934;4.668;2023-04-24T10:26:50;11.73;;;5.20;;
21601;SDS011;10963;50.934;4.668;2023-04-24T10:29:19;8.43;;;4.73;;
21601;SDS011;10963;50.934;4.668;2023-04-24T10:31:46;13.57;;;5.77;;
21601;SDS011;10963;50.934;4.668;2023-04-24T10:34:15;11.50;;;4.40;;
21601;SDS011;10963;50.934;4.668;2023-04-24T10:36:46;9.70;;;5.37;;
21601;SDS011;10963;50.934;4.668;2023-04-24T10:39:16;10.27;;;5.33;;
21601;SDS011;10963;50.934;4.668;2023-04-24T10:41:43;12.87;;;5.07;;
21601;SDS011;10963;50.934;4.668;2023-04-24T10:44:13;12.50;;;5.90;;
21601;SDS011;10963;50.934;4.668;2023-04-24T10:46:52;10.73;;;5.97;;
21601;SDS011;10963;50.934;4.668;2023-04-24T10:49:32;7.77;;;4.93;;
21601;SDS011;10963;50.934;4.668;2023-04-24T10:52:04;7.70;;;4.87;;
21601;SDS011;10963;50.934;4.668;2023-04-24T10:54:36;10.50;;;4.67;;
21601;SDS011;10963;50.934;4.668;2023-04-24T10:59:51;8.73;;;4.73;;
21601;SDS011;10963;50.934;4.668;2023-04-24T11:02:38;9.67;;;4.80;;
21601;SDS011;10963;50.934;4.668;2023-04-24T11:05:14;8.23;;;4.77;;
21601;SDS011;10963;50.934;4.668;2023-04-24T11:10:39;12.80;;;4.93;;
21601;SDS011;10963;50.934;4.668;2023-04-24T11:13:16;9.87;;;5.47;;
21601;SDS011;10963;50.934;4.668;2023-04-24T11:15:44;12.10;;;5.47;;
21601;SDS011;10963;50.934;4.668;2023-04-24T11:18:41;9.10;;;5.00;;
21601;SDS011;10963;50.934;4.668;2023-04-24T11:21:15;10.07;;;4.90;;
21601;SDS011;10963;50.934;4.668;2023-04-24T11:23:45;10.17;;;5.63;;
21601;SDS011;10963;50.934;4.668;2023-04-24T11:26:23;9.17;;;4.73;;
21601;SDS011;10963;50.934;4.668;2023-04-24T11:28:55;13.17;;;5.40;;
21601;SDS011;10963;50.934;4.668;2023-04-24T11:31:34;8.43;;;4.87;;
21601;SDS011;10963;50.934;4.668;2023-04-24T11:34:09;8.70;;;5.00;;
21601;SDS011;10963;50.934;4.668;2023-04-24T11:36:37;11.17;;;5.47;;
21601;SDS011;10963;50.934;4.668;2023-04-24T11:39:05;7.80;;;4.80;;
21601;SDS011;10963;50.934;4.668;2023-04-24T11:41:34;7.50;;;5.03;;
21601;SDS011;10963;50.934;4.668;2023-04-24T11:44:00;8.27;;;4.97;;
21601;SDS011;10963;50.934;4.668;2023-04-24T11:46:28;8.23;;;5.20;;
21601;SDS011;10963;50.934;4.668;2023-04-24T11:48:55;8.47;;;4.73;;
21601;SDS011;10963;50.934;4.668;2023-04-24T11:51:25;8.33;;;4.73;;
21601;SDS011;10963;50.934;4.668;2023-04-24T11:53:55;9.97;;;5.03;;
21601;SDS011;10963;50.934;4.668;2023-04-24T11:56:21;8.40;;;5.00;;
21601;SDS011;10963;50.934;4.668;2023-04-24T11:58:54;8.27;;;4.63;;
21601;SDS011;10963;50.934;4.668;2023-04-24T12:01:22;9.40;;;5.10;;
21601;SDS011;10963;50.934;4.668;2023-04-24T12:03:48;10.27;;;5.37;;
21601;SDS011;10963;50.934;4.668;2023-04-24T12:06:26;9.00;;;5.03;;
21601;SDS011;10963;50.934;4.668;2023-04-24T12:08:55;7.93;;;5.00;;
21601;SDS011;10963;50.934;4.668;2023-04-24T12:11:22;9.47;;;5.30;;
21601;SDS011;10963;50.934;4.668;2023-04-24T12:13:48;9.97;;;5.10;;
21601;SDS011;10963;50.934;4.668;2023-04-24T12:16:14;11.27;;;5.33;;
21601;SDS011;10963;50.934;4.668;2023-04-24T12:18:43;7.10;;;4.97;;
21601;SDS011;10963;50.934;4.668;2023-04-24T12:21:21;7.93;;;5.10;;
21601;SDS011;10963;50.934;4.668;2023-04-24T12:23:54;7.43;;;4.90;;
21601;SDS011;10963;50.934;4.668;2023-04-24T12:26:20;9.00;;;5.07;;
21601;SDS011;10963;50.934;4.668;2023-04-24T12:28:50;11.40;;;5.43;;
21601;SDS011;10963;50.934;4.668;2023-04-24T12:31:16;12.13;;;5.47;;
21601;SDS011;10963;50.934;4.668;2023-04-24T12:33:42;9.33;;;4.77;;
21601;SDS011;10963;50.934;4.668;2023-04-24T12:36:11;9.03;;;5.00;;
21601;SDS011;10963;50.934;4.668;2023-04-24T12:38:37;10.57;;;5.43;;
21601;SDS011;10963;50.934;4.668;2023-04-24T12:41:09;10.20;;;5.83;;
21601;SDS011;10963;50.934;4.668;2023-04-24T12:43:37;9.97;;;5.57;;
21601;SDS011;10963;50.934;4.668;2023-04-24T12:46:03;8.30;;;5.40;;
21601;SDS011;10963;50.934;4.668;2023-04-24T12:48:32;11.63;;;5.37;;
21601;SDS011;10963;50.934;4.668;2023-04-24T12:51:00;9.10;;;5.70;;
21601;SDS011;10963;50.934;4.668;2023-04-24T12:53:26;14.07;;;5.97;;
21601;SDS011;10963;50.934;4.668;2023-04-24T12:55:57;10.37;;;5.60;;
21601;SDS011;10963;50.934;4.668;2023-04-24T12:58:25;8.53;;;4.97;;
21601;SDS011;10963;50.934;4.668;2023-04-24T13:00:53;9.23;;;5.13;;
21601;SDS011;10963;50.934;4.668;2023-04-24T13:03:19;11.30;;;5.13;;
21601;SDS011;10963;50.934;4.668;2023-04-24T13:05:45;10.20;;;4.57;;
21601;SDS011;10963;50.934;4.668;2023-04-24T13:08:11;9.97;;;5.10;;
21601;SDS011;10963;50.934;4.668;2023-04-24T13:10:37;11.37;;;5.17;;
21601;SDS011;10963;50.934;4.668;2023-04-24T13:13:04;6.90;;;4.70;;
21601;SDS011;10963;50.934;4.668;2023-04-24T13:15:33;6.13;;;4.67;;
21601;SDS011;10963;50.934;4.668;2023-04-24T13:17:59;8.20;;;4.27;;
21601;SDS011;10963;50.934;4.668;2023-04-24T13:20:25;6.70;;;3.97;;
21601;SDS011;10963;50.934;4.668;2023-04-24T13:22:51;7.83;;;4.30;;
21601;SDS011;10963;50.934;4.668;2023-04-24T13:25:19;11.17;;;4.37;;
21601;SDS011;10963;50.934;4.668;2023-04-24T13:27:45;7.53;;;4.13;;
21601;SDS011;10963;50.934;4.668;2023-04-24T13:30:11;10.57;;;4.80;;
21601;SDS011;10963;50.934;4.668;2023-04-24T13:32:37;8.53;;;4.50;;
21601;SDS011;10963;50.934;4.668;2023-04-24T13:35:05;8.77;;;4.50;;
21601;SDS011;10963;50.934;4.668;2023-04-24T13:37:31;7.57;;;4.67;;
21601;SDS011;10963;50.934;4.668;2023-04-24T13:39:57;10.63;;;4.33;;
21601;SDS011;10963;50.934;4.668;2023-04-24T13:42:23;8.23;;;4.37;;
21601;SDS011;10963;50.934;4.668;2023-04-24T13:44:48;6.97;;;4.40;;
21601;SDS011;10963;50.934;4.668;2023-04-24T13:47:15;5.63;;;4.20;;
21601;SDS011;10963;50.934;4.668;2023-04-24T13:49:44;8.33;;;4.00;;
21601;SDS011;10963;50.934;4.668;2023-04-24T13:52:09;7.17;;;4.20;;
21601;SDS011;10963;50.934;4.668;2023-04-24T13:54:40;6.63;;;3.50;;
21601;SDS011;10963;50.934;4.668;2023-04-24T13:57:06;6.90;;;3.70;;
21601;SDS011;10963;50.934;4.668;2023-04-24T13:59:34;8.20;;;3.93;;
21601;SDS011;10963;50.934;4.668;2023-04-24T14:02:02;6.60;;;4.03;;
21601;SDS011;10963;50.934;4.668;2023-04-24T14:04:27;8.30;;;4.27;;
21601;SDS011;10963;50.934;4.668;2023-04-24T14:06:53;5.07;;;3.50;;
21601;SDS011;10963;50.934;4.668;2023-04-24T14:09:22;7.67;;;3.77;;
21601;SDS011;10963;50.934;4.668;2023-04-24T14:11:47;5.53;;;3.20;;
21601;SDS011;10963;50.934;4.668;2023-04-24T14:14:18;7.17;;;3.07;;
21601;SDS011;10963;50.934;4.668;2023-04-24T14:16:46;8.30;;;3.00;;
21601;SDS011;10963;50.934;4.668;2023-04-24T14:19:14;6.17;;;3.27;;
21601;SDS011;10963;50.934;4.668;2023-04-24T14:21:42;4.50;;;3.13;;
21601;SDS011;10963;50.934;4.668;2023-04-24T14:24:08;6.70;;;2.53;;
21601;SDS011;10963;50.934;4.668;2023-04-24T14:26:36;5.23;;;2.50;;
21601;SDS011;10963;50.934;4.668;2023-04-24T14:29:01;6.50;;;2.80;;
21601;SDS011;10963;50.934;4.668;2023-04-24T14:31:27;5.53;;;3.40;;
21601;SDS011;10963;50.934;4.668;2023-04-24T14:33:53;6.10;;;3.37;;
21601;SDS011;10963;50.934;4.668;2023-04-24T14:36:19;5.30;;;3.33;;
21601;SDS011;10963;50.934;4.668;2023-04-24T14:38:47;6.27;;;3.80;;
21601;SDS011;10963;50.934;4.668;2023-04-24T14:41:12;5.93;;;4.20;;